Time;durP1;ratioP1;P1;durP2;ratioP2;P2;SDS_P1;SDS_P2;PMS_P1;PMS_P2;Temp;Humidity;BMP_temperature;BMP_pressure;BME280_temperature;BME280_humidity;BME280_pressure;Samples;Min_cycle;Max_cycle;Signal;HPM_P1;HPM_P2
2022/12/16 00:02:06;;;;;;;160.20;71.05;;;;;;;2.68;100.00;97436.06;4785138;29;20043;-80
2022/12/16 00:05:15;;;;;;;188.40;81.53;;;;;;;2.59;100.00;97436.38;4842114;29;20459;-81
2022/12/16 00:08:42;;;;;;;173.90;74.20;;;;;;;2.55;100.00;97445.28;4857924;29;20041;-80
2022/12/16 00:15:39;;;;;;;187.55;75.65;;;;;;;2.52;100.00;97434.00;4844834;29;20089;-81
2022/12/16 00:19:17;;;;;;;189.50;80.68;;;;;;;2.47;100.00;97449.97;4856184;29;20033;-81
2022/12/16 00:22:28;;;;;;;175.88;75.45;;;;;;;2.51;100.00;97442.81;4859232;29;20040;-80
2022/12/16 00:25:40;;;;;;;183.90;73.90;;;;;;;2.49;100.00;97442.84;4869640;29;20079;-80
2022/12/16 00:29:17;;;;;;;176.80;71.70;;;;;;;2.49;100.00;97429.66;4841044;29;20066;-81
2022/12/16 00:32:59;;;;;;;160.45;73.60;;;;;;;2.45;100.00;97432.47;4789539;29;20046;-80
2022/12/16 00:36:18;;;;;;;148.98;64.00;;;;;;;2.56;100.00;97425.91;4805081;29;20035;-80
2022/12/16 00:43:26;;;;;;;121.03;52.92;;;;;;;2.72;100.00;97424.50;4806189;29;20104;-80
2022/12/16 00:46:24;;;;;;;128.50;57.47;;;;;;;2.82;100.00;97432.13;4777712;30;20397;-76
2022/12/16 00:49:16;;;;;;;;;;;;;;;2.92;100.00;97428.28;4804008;29;20050;-76
2022/12/16 00:53:00;;;;;;;129.13;54.58;;;;;;;3.03;100.00;97420.84;4818390;29;20009;-78
2022/12/16 00:56:35;;;;;;;111.80;49.00;;;;;;;3.20;100.00;97431.66;4844432;29;20525;-77
2022/12/16 01:03:38;;;;;;;146.02;62.05;;;;;;;3.48;100.00;97432.44;4877309;29;20126;-77
2022/12/16 01:07:02;;;;;;;148.20;62.72;;;;;;;3.33;100.00;97429.47;4896089;29;20040;-78
2022/12/16 01:19:22;;;;;;;123.97;53.47;;;;;;;3.23;100.00;97376.09;4960575;28;20078;-77
2022/12/16 01:22:50;;;;;;;131.95;55.58;;;;;;;3.11;100.00;97379.16;4932959;28;20105;-76
2022/12/16 01:26:05;;;;;;;121.68;51.72;;;;;;;2.95;100.00;97360.34;4964986;28;20039;-77
2022/12/16 01:29:32;;;;;;;125.57;53.63;;;;;;;2.92;100.00;97360.47;4976412;28;20049;-78
2022/12/16 01:36:34;;;;;;;121.95;52.50;;;;;;;3.07;100.00;97345.84;4966724;28;20433;-76
2022/12/16 01:40:08;;;;;;;123.70;51.72;;;;;;;3.12;100.00;97367.66;4975939;28;20034;-77
2022/12/16 01:43:52;;;;;;;113.78;50.75;;;;;;;3.21;100.00;97378.78;4914932;29;20071;-75
2022/12/16 01:46:58;;;;;;;105.97;46.75;;;;;;;3.23;100.00;97381.38;4910219;29;20071;-76
2022/12/16 01:50:37;;;;;;;106.88;44.03;;;;;;;3.28;100.00;97384.72;4942711;29;20559;-76
2022/12/16 01:53:58;;;;;;;110.90;47.35;;;;;;;3.37;100.00;97371.16;4947172;29;20670;-77
2022/12/16 01:57:26;;;;;;;107.25;45.22;;;;;;;3.31;100.00;97370.53;4948359;28;20043;-77
2022/12/16 02:04:12;;;;;;;102.70;44.03;;;;;;;3.24;100.00;97367.22;4937496;28;20101;-77
2022/12/16 02:07:43;;;;;;;109.77;41.87;;;;;;;3.52;100.00;97362.66;4924778;29;20118;-76
2022/12/16 02:14:37;;;;;;;82.60;37.10;;;;;;;3.75;100.00;97375.03;4899021;29;20087;-76
2022/12/16 02:17:44;;;;;;;84.88;36.90;;;;;;;3.71;100.00;97358.41;4858174;29;20049;-76
2022/12/16 02:21:16;;;;;;;74.90;33.30;;;;;;;3.80;100.00;97344.84;4864142;29;20111;-76
2022/12/16 02:24:41;;;;;;;83.10;34.97;;;;;;;3.76;100.00;97340.59;4864292;29;20136;-77
2022/12/16 02:28:07;;;;;;;72.68;32.80;;;;;;;3.70;100.00;97346.09;4872101;29;20521;-77
2022/12/16 02:31:46;;;;;;;72.80;27.63;;;;;;;3.72;100.00;97328.38;4837128;29;20038;-76
2022/12/16 02:34:51;;;;;;;66.78;29.75;;;;;;;3.80;100.00;97336.03;4850987;29;20049;-76
2022/12/16 02:45:35;;;;;;;70.30;32.90;;;;;;;4.02;100.00;97333.41;4837216;29;20053;-76
2022/12/16 02:48:36;;;;;;;79.50;35.55;;;;;;;4.02;100.00;97342.22;4849470;29;20052;-76
2022/12/16 02:51:48;;;;;;;83.10;35.85;;;;;;;3.99;100.00;97320.31;4880722;29;20152;-76
2022/12/16 02:55:33;;;;;;;72.47;34.75;;;;;;;3.93;100.00;97339.06;4907089;28;20144;-76
2022/12/16 02:58:57;;;;;;;72.35;32.58;;;;;;;3.96;100.00;97352.19;4931883;29;20035;-76
2022/12/16 03:02:43;;;;;;;72.88;33.17;;;;;;;3.94;100.00;97373.41;4913528;29;20046;-76
2022/12/16 03:06:34;;;;;;;69.97;33.03;;;;;;;4.02;100.00;97373.13;4872485;29;20125;-75
2022/12/16 03:09:45;;;;;;;78.55;34.50;;;;;;;4.00;100.00;97402.25;4878328;29;20041;-75
2022/12/16 03:13:08;;;;;;;75.03;35.17;;;;;;;4.02;100.00;97408.38;4860285;29;20047;-75
2022/12/16 03:16:33;;;;;;;81.70;35.22;;;;;;;4.04;100.00;97424.19;4871355;29;20048;-75
2022/12/16 03:23:19;;;;;;;81.88;36.92;;;;;;;3.97;100.00;97399.72;4822785;29;20553;-76
2022/12/16 03:26:52;;;;;;;94.68;39.45;;;;;;;3.98;100.00;97412.06;4809128;29;20463;-76
2022/12/16 03:30:14;;;;;;;84.53;38.90;;;;;;;4.01;100.00;97393.41;4824897;29;20128;-76
2022/12/16 03:33:25;;;;;;;68.25;31.05;;;;;;;4.00;100.00;97396.13;4841260;29;20451;-78
2022/12/16 03:36:41;;;;;;;77.90;35.25;;;;;;;4.10;100.00;97394.84;4868469;29;20052;-77
2022/12/16 03:40:14;;;;;;;72.03;33.33;;;;;;;4.25;100.00;97392.44;4872360;29;20029;-78
2022/12/16 03:43:47;;;;;;;55.35;22.58;;;;;;;4.50;100.00;97396.75;4970948;29;20066;-78
2022/12/16 03:47:06;;;;;;;70.57;32.53;;;;;;;4.40;100.00;97380.38;5002233;28;20050;-78
2022/12/16 03:50:23;;;;;;;70.72;33.50;;;;;;;4.74;100.00;97406.34;4989193;28;20509;-75
2022/12/16 03:53:52;;;;;;;62.60;27.45;;;;;;;5.48;100.00;97421.72;5029856;28;20049;-75
2022/12/16 03:57:26;;;;;;;47.78;21.15;;;;;;;5.61;100.00;97428.22;5017888;28;20072;-75
2022/12/16 04:00:32;;;;;;;53.22;26.42;;;;;;;5.94;100.00;97426.72;5012236;28;20412;-79
2022/12/16 04:03:49;;;;;;;72.38;37.42;;;;;;;5.35;100.00;97404.66;5001111;28;20532;-79
2022/12/16 04:07:23;;;;;;;98.07;43.60;;;;;;;5.20;100.00;97390.25;5012047;28;20033;-79
2022/12/16 04:27:23;;;;;;;78.70;37.20;;;;;;;4.57;100.00;97362.03;4978313;28;20121;-80
2022/12/16 04:29:23;;;;;;;73.70;34.67;;;;;;;4.56;100.00;97362.09;4970414;28;20095;-79
